Time;durP1;ratioP1;P1;durP2;ratioP2;P2;SDS_P1;SDS_P2;PMS_P1;PMS_P2;Temp;Humidity;BMP_temperature;BMP_pressure;BME280_temperature;BME280_humidity;BME280_pressure;Samples;Min_cycle;Max_cycle;Signal;HPM_P1;HPM_P2
2023/07/13 00:00:52;;;;;;;10.52;7.22;;;;;;;-146.25;100.00;52189.78;2079645;28;34313;-73
2023/07/13 00:01:55;;;;;;;10.10;6.90;;;;;;;-146.25;100.00;52206.00;2079745;28;31779;-72
2023/07/13 00:02:57;;;;;;;7.22;6.38;;;;;;;-146.25;100.00;52163.41;2087575;28;31382;-72
2023/07/13 00:03:59;;;;;;;11.38;6.93;;;;;;;-146.25;100.00;52183.69;2087473;28;20890;-72
2023/07/13 00:05:04;;;;;;;11.55;7.18;;;;;;;-146.25;100.00;52185.72;2080183;28;31169;-73
2023/07/13 00:06:07;;;;;;;11.60;7.22;;;;;;;-146.25;100.00;52197.88;2079199;28;35813;-72
2023/07/13 00:07:09;;;;;;;7.82;6.53;;;;;;;-146.25;100.00;52163.41;2080667;28;20243;-72
2023/07/13 00:08:11;;;;;;;8.52;6.85;;;;;;;-146.25;100.00;52195.84;2079352;28;35675;-73
2023/07/13 00:09:18;;;;;;;6.88;6.18;;;;;;;-146.25;100.00;52143.13;2078796;28;37324;-73
2023/07/13 00:10:21;;;;;;;8.77;6.05;;;;;;;-146.25;100.00;52163.41;2079413;28;31494;-72
2023/07/13 00:11:25;;;;;;;11.82;7.18;;;;;;;-146.25;100.00;52199.91;2086894;28;36797;-73
2023/07/13 00:12:33;;;;;;;10.98;7.80;;;;;;;-146.25;100.00;52177.59;2086193;28;37079;-72
2023/07/13 00:13:38;;;;;;;11.52;8.40;;;;;;;-146.25;100.00;52199.91;2080072;28;33496;-73
2023/07/13 00:14:40;;;;;;;9.85;6.28;;;;;;;-146.25;100.00;52183.69;2087941;28;20034;-72
2023/07/13 00:15:42;;;;;;;12.05;6.95;;;;;;;-146.25;100.00;52220.19;2087001;28;20072;-73
2023/07/13 00:16:44;;;;;;;12.18;6.82;;;;;;;-146.25;100.00;52173.56;2086918;28;36755;-73
2023/07/13 00:17:48;;;;;;;8.20;7.07;;;;;;;-146.25;100.00;52197.88;2079212;28;25315;-72
2023/07/13 00:18:50;;;;;;;10.93;7.55;;;;;;;-146.25;100.00;52181.66;2078975;28;34712;-72
2023/07/13 00:19:56;;;;;;;7.72;6.82;;;;;;;-146.25;100.00;52201.94;2079809;28;40089;-72
2023/07/13 00:21:05;;;;;;;7.70;6.88;;;;;;;-146.25;100.00;52193.81;2079361;28;32333;-72
2023/07/13 00:22:06;;;;;;;9.05;7.18;;;;;;;-146.25;100.00;52201.94;2079001;28;36405;-72
2023/07/13 00:23:08;;;;;;;7.72;6.55;;;;;;;-146.25;100.00;52214.09;2079070;28;37449;-72
2023/07/13 00:24:15;;;;;;;8.88;6.93;;;;;;;-146.25;100.00;52175.56;2080894;28;20138;-72
2023/07/13 00:25:17;;;;;;;13.38;7.28;;;;;;;-146.25;100.00;52212.06;2087257;28;36986;-71
2023/07/13 00:26:19;;;;;;;8.45;7.30;;;;;;;-146.25;100.00;52191.81;2086693;28;33420;-72
2023/07/13 00:27:21;;;;;;;9.93;6.25;;;;;;;-146.25;100.00;52187.75;2079978;28;24270;-72
2023/07/13 00:28:22;;;;;;;9.65;7.18;;;;;;;-146.25;100.00;52173.56;2079746;28;31407;-72
2023/07/13 00:29:26;;;;;;;9.13;6.60;;;;;;;-146.25;100.00;52201.94;2079375;28;24086;-73
2023/07/13 00:30:28;;;;;;;7.53;6.78;;;;;;;-146.25;100.00;52216.13;2079083;28;33366;-72
2023/07/13 00:31:35;;;;;;;9.52;6.93;;;;;;;-146.25;100.00;52171.53;2079440;28;20042;-72
2023/07/13 00:32:41;;;;;;;9.07;7.10;;;;;;;-146.25;100.00;52206.00;2079395;28;20175;-72
2023/07/13 00:33:43;;;;;;;13.55;7.68;;;;;;;-146.25;100.00;52208.03;2071186;28;28274;-72
2023/07/13 00:34:45;;;;;;;8.82;6.82;;;;;;;-146.25;100.00;52189.78;2079120;28;29033;-72
2023/07/13 00:35:55;;;;;;;10.02;6.57;;;;;;;-146.25;100.00;52218.16;2080571;28;20038;-73
2023/07/13 00:36:57;;;;;;;10.57;6.55;;;;;;;-146.25;100.00;52220.19;2087225;28;27321;-72
2023/07/13 00:37:58;;;;;;;8.95;6.07;;;;;;;-146.25;100.00;52228.28;2087862;28;23647;-72
2023/07/13 00:39:00;;;;;;;8.80;6.55;;;;;;;-146.25;100.00;52185.72;2079084;28;34999;-72
2023/07/13 00:40:06;;;;;;;11.05;6.68;;;;;;;-146.25;100.00;52242.50;2079599;28;26730;-72
2023/07/13 00:41:11;;;;;;;7.47;6.20;;;;;;;-146.25;100.00;52203.97;2087182;28;27880;-72
2023/07/13 00:42:13;;;;;;;7.93;5.90;;;;;;;-146.25;100.00;52185.72;2079758;28;20088;-72
2023/07/13 00:43:21;;;;;;;13.68;6.78;;;;;;;-146.25;100.00;52171.53;2079455;28;21356;-73
2023/07/13 00:44:23;;;;;;;9.55;6.05;;;;;;;-146.25;100.00;52197.88;2079052;28;26558;-72
2023/07/13 00:45:25;;;;;;;8.65;6.20;;;;;;;-146.25;100.00;52208.03;2078979;28;33873;-72
2023/07/13 00:46:31;;;;;;;10.30;6.88;;;;;;;-146.25;100.00;52232.34;2080230;28;30561;-73
2023/07/13 00:47:33;;;;;;;9.32;5.93;;;;;;;-146.25;100.00;52181.66;2087231;28;20097;-72
2023/07/13 00:48:38;;;;;;;10.18;6.05;;;;;;;-146.25;100.00;52173.56;2087005;28;20114;-72
2023/07/13 00:49:42;;;;;;;8.57;6.13;;;;;;;-146.25;100.00;52216.13;2079615;28;24951;-72
2023/07/13 00:50:48;;;;;;;11.10;6.50;;;;;;;-146.25;100.00;52220.19;2079632;28;32803;-72
2023/07/13 00:52:16;;;;;;;13.05;5.95;;;;;;;-146.25;100.00;52201.94;2087834;28;20041;-73
2023/07/13 00:53:19;;;;;;;8.65;5.60;;;;;;;-146.25;100.00;52203.97;2085456;28;20049;-73
2023/07/13 00:54:27;;;;;;;10.55;5.80;;;;;;;-146.25;100.00;52177.59;2086725;28;36201;-73
2023/07/13 00:55:34;;;;;;;7.45;4.97;;;;;;;-146.25;100.00;52201.94;2087535;28;20057;-72
2023/07/13 00:56:43;;;;;;;10.18;5.28;;;;;;;-146.25;100.00;52206.00;2079199;28;27008;-72
2023/07/13 00:57:45;;;;;;;8.95;5.15;;;;;;;-146.25;100.00;52167.47;2072508;28;20043;-72
2023/07/13 00:58:46;;;;;;;8.30;4.85;;;;;;;-146.25;100.00;52169.50;2079878;28;30697;-72
2023/07/13 00:59:58;;;;;;;7.38;4.68;;;;;;;-146.25;100.00;52210.03;2079462;28;30035;-72
2023/07/13 01:01:00;;;;;;;10.63;5.43;;;;;;;-146.25;100.00;52157.34;2079475;28;20234;-72
2023/07/13 01:02:03;;;;;;;6.93;4.85;;;;;;;-146.25;100.00;52208.03;2079302;28;20156;-72
2023/07/13 01:03:05;;;;;;;11.00;5.00;;;;;;;-146.25;100.00;52208.03;2087230;28;28752;-73
2023/07/13 01:04:10;;;;;;;10.82;4.97;;;;;;;-146.25;100.00;52191.81;2078695;28;32595;-73
2023/07/13 01:05:22;;;;;;;7.38;4.63;;;;;;;-146.25;100.00;52181.66;2079515;28;20827;-72
2023/07/13 01:06:24;;;;;;;8.10;5.10;;;;;;;-146.25;100.00;52206.00;2087769;28;20037;-72
2023/07/13 01:07:26;;;;;;;7.63;4.75;;;;;;;-146.25;100.00;52208.03;2079458;28;20046;-73
2023/07/13 01:08:31;;;;;;;6.32;4.20;;;;;;;-146.25;100.00;52208.03;2071553;28;20154;-72
2023/07/13 01:09:35;;;;;;;9.32;5.10;;;;;;;-146.25;100.00;52242.50;2080263;28;20045;-72
2023/07/13 01:10:39;;;;;;;8.30;4.75;;;;;;;-146.25;100.00;52201.94;2080114;28;26836;-72
2023/07/13 01:11:42;;;;;;;7.88;4.32;;;;;;;-146.25;100.00;52197.88;2080523;28;20215;-72
2023/07/13 01:12:44;;;;;;;9.18;4.43;;;;;;;-146.25;100.00;52236.41;2081444;28;20106;-73
2023/07/13 01:13:46;;;;;;;13.70;4.55;;;;;;;-146.25;100.00;52183.69;2088775;28;25849;-72
2023/07/13 01:14:47;;;;;;;8.35;4.13;;;;;;;-146.25;100.00;52185.72;2088377;28;26486;-72
2023/07/13 01:15:58;;;;;;;11.18;5.00;;;;;;;-146.25;100.00;52210.03;2072578;28;20229;-72
2023/07/13 01:17:03;;;;;;;;;;;;;;;-146.25;100.00;52222.22;2067003;28;20046;-71
2023/07/13 01:18:18;;;;;;;5.97;3.83;;;;;;;-146.25;100.00;52230.31;2081212;28;19984;-72
2023/07/13 01:19:39;;;;;;;8.25;4.22;;;;;;;-146.25;100.00;52193.81;2080320;28;29394;-72
2023/07/13 01:20:41;;;;;;;9.07;4.00;;;;;;;-146.25;100.00;52236.41;2075482;28;20049;-72
2023/07/13 01:21:43;;;;;;;7.75;4.25;;;;;;;-146.25;100.00;52228.28;2074101;28;22970;-72
2023/07/13 01:22:48;;;;;;;8.63;3.70;;;;;;;-146.25;100.00;52234.38;2072770;28;25748;-72
2023/07/13 01:23:50;;;;;;;9.00;4.05;;;;;;;-146.25;100.00;52169.50;2073413;28;20034;-73
2023/07/13 01:24:53;;;;;;;9.30;4.13;;;;;;;-146.25;100.00;52201.94;2080506;28;23556;-72
2023/07/13 01:25:56;;;;;;;9.23;3.70;;;;;;;-146.25;100.00;52218.16;2081156;28;32619;-72
2023/07/13 01:26:58;;;;;;;10.32;4.22;;;;;;;-146.25;100.00;52212.06;2080734;28;20220;-72
2023/07/13 01:27:59;;;;;;;9.27;3.85;;;;;;;-146.25;100.00;52197.88;2080603;28;28604;-72
2023/07/13 01:29:03;;;;;;;8.77;3.60;;;;;;;-146.25;100.00;52246.53;2072006;28;30092;-72
2023/07/13 01:30:10;;;;;;;6.88;3.50;;;;;;;-146.25;100.00;52185.72;2073329;28;20132;-71
2023/07/13 01:31:14;;;;;;;11.50;3.50;;;;;;;-146.25;100.00;52203.97;2080764;28;25762;-71
2023/07/13 01:32:23;;;;;;;7.30;3.30;;;;;;;-146.25;100.00;52173.56;2088482;28;27938;-72
2023/07/13 01:33:27;;;;;;;12.40;3.70;;;;;;;-146.25;100.00;52230.31;2087474;28;20160;-72
2023/07/13 01:34:30;;;;;;;6.88;3.33;;;;;;;-146.25;100.00;52199.91;2072572;28;20042;-72
2023/07/13 01:35:32;;;;;;;8.95;3.58;;;;;;;-146.25;100.00;52195.84;2072313;28;26267;-72
2023/07/13 01:36:36;;;;;;;13.45;4.00;;;;;;;-146.25;100.00;52197.88;2081571;28;20093;-72
2023/07/13 01:37:40;;;;;;;9.00;3.70;;;;;;;-146.25;100.00;52195.84;2081154;28;20050;-72
2023/07/13 01:38:44;;;;;;;9.07;3.78;;;;;;;-146.25;100.00;52222.22;2089226;28;20064;-72
2023/07/13 01:39:47;;;;;;;7.47;3.78;;;;;;;-146.25;100.00;52193.81;2088383;28;20044;-72
2023/07/13 01:40:53;;;;;;;16.15;4.10;;;;;;;-146.25;100.00;52224.25;2081828;28;20081;-72
2023/07/13 01:41:55;;;;;;;10.30;4.20;;;;;;;-146.25;100.00;52189.78;2088262;28;29655;-72
2023/07/13 01:42:58;;;;;;;8.35;3.38;;;;;;;-146.25;100.00;52183.69;2088533;28;30574;-72
2023/07/13 01:44:00;;;;;;;11.38;4.25;;;;;;;-146.25;100.00;52197.88;2088219;28;34820;-72
2023/07/13 01:45:02;;;;;;;9.77;3.85;;;;;;;-146.25;100.00;52197.88;2088516;28;27385;-72
2023/07/13 01:46:04;;;;;;;7.68;3.83;;;;;;;-146.25;100.00;52220.19;2081309;28;20177;-72
2023/07/13 01:47:27;;;;;;;8.25;3.70;;;;;;;-146.25;100.00;52163.41;2080532;28;32670;-72
2023/07/13 01:48:30;;;;;;;10.98;3.92;;;;;;;-146.25;100.00;52169.50;2089140;28;20048;-72
2023/07/13 01:49:32;;;;;;;10.48;3.70;;;;;;;-146.25;100.00;52175.56;2080048;28;29671;-72
2023/07/13 01:50:34;;;;;;;15.55;4.30;;;;;;;-146.25;100.00;52177.59;2079916;28;32888;-72
2023/07/13 01:51:36;;;;;;;7.82;3.92;;;;;;;-146.25;100.00;52226.25;2072319;28;24430;-72
2023/07/13 01:52:38;;;;;;;9.23;3.88;;;;;;;-146.25;100.00;52208.03;2080378;28;20026;-72
2023/07/13 01:53:40;;;;;;;7.80;3.47;;;;;;;-146.25;100.00;52183.69;2081043;28;29768;-71
2023/07/13 01:54:44;;;;;;;7.78;3.67;;;;;;;-146.25;100.00;52197.88;2080907;28;28217;-72
2023/07/13 01:55:46;;;;;;;10.05;3.72;;;;;;;-146.25;100.00;52214.09;2080227;28;33893;-72
2023/07/13 01:56:49;;;;;;;10.32;4.05;;;;;;;-146.25;100.00;52183.69;2080525;28;20112;-72
2023/07/13 01:57:53;;;;;;;12.32;3.95;;;;;;;-146.25;100.00;52185.72;2081445;28;20056;-72
2023/07/13 01:58:55;;;;;;;6.82;3.40;;;;;;;-146.25;100.00;52234.38;2081265;28;20075;-72
2023/07/13 01:59:57;;;;;;;6.15;3.63;;;;;;;-146.25;100.00;52222.22;2080727;28;28017;-72
2023/07/13 02:00:59;;;;;;;12.15;3.60;;;;;;;-146.25;100.00;52228.28;2080471;28;20073;-72
2023/07/13 02:02:02;;;;;;;8.00;3.67;;;;;;;-146.25;100.00;52220.19;2079758;28;20101;-72
2023/07/13 02:03:04;;;;;;;8.32;3.40;;;;;;;-146.25;100.00;52216.13;2080240;28;20098;-72
2023/07/13 02:04:06;;;;;;;10.75;4.30;;;;;;;-146.25;100.00;52185.72;2080417;28;20950;-72
2023/07/13 02:05:08;;;;;;;8.05;3.90;;;;;;;-146.25;100.00;52197.88;2080329;28;20042;-72
2023/07/13 02:06:10;;;;;;;8.10;3.72;;;;;;;-146.25;100.00;52201.94;2081111;28;24999;-72
2023/07/13 02:07:12;;;;;;;12.90;4.20;;;;;;;-146.25;100.00;52203.97;2088048;28;37828;-72
2023/07/13 02:08:14;;;;;;;10.57;4.43;;;;;;;-146.25;100.00;52226.25;2080258;28;30542;-72
2023/07/13 02:09:16;;;;;;;9.82;4.18;;;;;;;-146.25;100.00;52201.94;2080622;28;20200;-72
2023/07/13 02:10:18;;;;;;;8.13;3.60;;;;;;;-146.25;100.00;52220.19;2081305;28;20046;-72
2023/07/13 02:11:23;;;;;;;8.93;4.32;;;;;;;-146.25;100.00;52212.06;2080363;28;20042;-72
2023/07/13 02:12:25;;;;;;;7.53;4.00;;;;;;;-146.25;100.00;52212.06;2072679;28;20240;-71
2023/07/13 02:13:27;;;;;;;9.88;4.53;;;;;;;-146.25;100.00;52214.09;2080472;28;20873;-72
2023/07/13 02:14:29;;;;;;;8.00;4.13;;;;;;;-146.25;100.00;52214.09;2080580;28;21027;-72
2023/07/13 02:15:31;;;;;;;9.38;4.03;;;;;;;-146.25;100.00;52212.06;2079981;28;31023;-72
2023/07/13 02:16:33;;;;;;;15.07;5.07;;;;;;;-146.25;100.00;52210.03;2081266;28;20073;-72
2023/07/13 02:17:36;;;;;;;11.60;5.00;;;;;;;-146.25;100.00;52208.03;2080084;28;30913;-72
2023/07/13 02:18:38;;;;;;;10.55;4.80;;;;;;;-146.25;100.00;52203.97;2081046;28;25126;-72
2023/07/13 02:19:40;;;;;;;11.65;4.97;;;;;;;-146.25;100.00;52199.91;2079579;28;29682;-72
2023/07/13 02:20:41;;;;;;;8.35;4.20;;;;;;;-146.25;100.00;52201.94;2079996;28;28011;-72
2023/07/13 02:21:45;;;;;;;8.65;4.57;;;;;;;-146.25;100.00;52222.22;2081274;28;23560;-72
2023/07/13 02:22:47;;;;;;;8.98;4.60;;;;;;;-146.25;100.00;52210.03;2080607;28;20104;-72
2023/07/13 02:23:49;;;;;;;8.65;4.32;;;;;;;-146.25;100.00;52181.66;2079684;28;32500;-72
2023/07/13 02:24:51;;;;;;;7.72;4.05;;;;;;;-146.25;100.00;52185.72;2071847;28;28815;-72
2023/07/13 02:25:57;;;;;;;10.70;4.72;;;;;;;-146.25;100.00;52216.13;2071998;28;20962;-72
2023/07/13 02:26:59;;;;;;;8.98;4.63;;;;;;;-146.25;100.00;52189.78;2072591;28;27580;-73
2023/07/13 02:28:01;;;;;;;8.63;4.38;;;;;;;-146.25;100.00;52232.34;2072158;28;20157;-72
2023/07/13 02:29:03;;;;;;;11.73;4.45;;;;;;;-146.25;100.00;52193.81;2071757;28;38219;-72
2023/07/13 02:30:06;;;;;;;12.43;4.63;;;;;;;-146.25;100.00;52201.94;2080104;28;27180;-72
2023/07/13 02:31:11;;;;;;;10.57;4.47;;;;;;;-146.25;100.00;52226.25;2088055;28;20095;-72
2023/07/13 02:32:13;;;;;;;10.98;4.65;;;;;;;-146.25;100.00;52208.03;2080165;28;33486;-72
2023/07/13 02:33:15;;;;;;;13.82;4.57;;;;;;;-146.25;100.00;52191.81;2081106;28;20046;-72
2023/07/13 02:34:17;;;;;;;12.93;4.28;;;;;;;-146.25;100.00;52181.66;2079834;28;30319;-73
2023/07/13 02:35:22;;;;;;;9.40;4.25;;;;;;;-146.25;100.00;52203.97;2080238;28;20227;-72
2023/07/13 02:36:24;;;;;;;10.75;4.38;;;;;;;-146.25;100.00;52201.94;2079553;28;29772;-73
2023/07/13 02:37:26;;;;;;;10.82;4.72;;;;;;;-146.25;100.00;52206.00;2079984;28;26808;-71
2023/07/13 02:38:28;;;;;;;9.77;3.92;;;;;;;-146.25;100.00;52193.81;2087786;28;20968;-73
2023/07/13 02:39:32;;;;;;;11.25;4.47;;;;;;;-146.25;100.00;52220.19;2080345;28;20784;-72
2023/07/13 02:40:35;;;;;;;8.02;3.70;;;;;;;-146.25;100.00;52234.38;2081149;28;20049;-66
2023/07/13 02:41:37;;;;;;;12.70;4.43;;;;;;;-146.25;100.00;52218.16;2080166;28;24560;-71
2023/07/13 02:42:44;;;;;;;7.70;3.70;;;;;;;-146.25;100.00;52238.44;2080288;28;20054;-72
2023/07/13 02:43:46;;;;;;;8.75;4.32;;;;;;;-146.25;100.00;52256.69;2080421;28;24812;-73
2023/07/13 02:44:50;;;;;;;11.27;4.28;;;;;;;-146.25;100.00;52201.94;2080590;28;20898;-72
2023/07/13 02:45:52;;;;;;;11.60;4.10;;;;;;;-146.25;100.00;52244.50;2087680;28;31693;-72
2023/07/13 02:46:54;;;;;;;8.23;4.00;;;;;;;-146.25;100.00;52206.00;2080590;28;27784;-73
2023/07/13 02:47:55;;;;;;;6.30;3.75;;;;;;;-146.25;100.00;52220.19;2080618;28;24582;-72
2023/07/13 02:48:59;;;;;;;8.90;3.78;;;;;;;-146.25;100.00;52179.63;2080186;28;36817;-72
2023/07/13 02:50:02;;;;;;;8.35;3.83;;;;;;;-146.25;100.00;52238.44;2088288;28;20037;-72
2023/07/13 02:51:08;;;;;;;9.70;3.67;;;;;;;-146.25;100.00;52206.00;2088264;28;20127;-72
2023/07/13 02:52:09;;;;;;;8.93;4.18;;;;;;;-146.25;100.00;52222.22;2080197;28;20830;-72
2023/07/13 02:53:11;;;;;;;15.27;4.28;;;;;;;-146.25;100.00;52234.38;2080329;28;20038;-72
2023/07/13 02:54:13;;;;;;;10.70;3.63;;;;;;;-146.25;100.00;52208.03;2088120;28;20054;-72
2023/07/13 02:55:15;;;;;;;14.30;3.83;;;;;;;-146.25;100.00;52206.00;2088438;28;20044;-72
2023/07/13 02:56:22;;;;;;;7.55;3.65;;;;;;;-146.25;100.00;52208.03;2079969;28;20678;-72
2023/07/13 02:57:26;;;;;;;10.23;3.70;;;;;;;-146.25;100.00;52201.94;2072033;28;20184;-72
2023/07/13 02:58:28;;;;;;;8.85;3.63;;;;;;;-146.25;100.00;52226.25;2080295;28;20103;-72
2023/07/13 02:59:31;;;;;;;12.60;3.67;;;;;;;-146.25;100.00;52234.38;2080537;28;20042;-72
2023/07/13 03:00:33;;;;;;;9.45;3.95;;;;;;;-146.25;100.00;52216.13;2079781;28;20872;-73
2023/07/13 03:01:35;;;;;;;10.75;3.97;;;;;;;-146.25;100.00;52197.88;2080132;28;20046;-73
2023/07/13 03:02:37;;;;;;;10.52;3.45;;;;;;;-146.25;100.00;52224.25;2080291;28;20046;-72
2023/07/13 03:03:39;;;;;;;8.13;3.67;;;;;;;-146.25;100.00;52216.13;2071831;28;20043;-72
2023/07/13 03:04:41;;;;;;;7.95;3.20;;;;;;;-146.25;100.00;52199.91;2072140;28;20034;-72
2023/07/13 03:05:49;;;;;;;10.70;3.30;;;;;;;-146.25;100.00;52246.53;2071743;28;20078;-72
2023/07/13 03:06:58;;;;;;;6.53;3.30;;;;;;;-146.25;100.00;52212.06;2072871;28;20039;-72
2023/07/13 03:08:09;;;;;;;10.48;3.70;;;;;;;-146.25;100.00;52236.41;2080485;28;20069;-72
2023/07/13 03:09:12;;;;;;;12.32;4.28;;;;;;;-146.25;100.00;52210.03;2080584;28;20164;-72
2023/07/13 03:10:17;;;;;;;7.50;3.30;;;;;;;-146.25;100.00;52220.19;2080270;28;20930;-72
2023/07/13 03:11:24;;;;;;;9.88;3.65;;;;;;;-146.25;100.00;52208.03;2072478;28;20077;-72
2023/07/13 03:12:38;;;;;;;11.60;3.70;;;;;;;-146.25;100.00;52222.22;2073669;28;20977;-72
2023/07/13 03:13:46;;;;;;;9.43;3.65;;;;;;;-146.25;100.00;52218.16;2072666;28;20065;-72
2023/07/13 03:14:48;;;;;;;7.05;3.05;;;;;;;-146.25;100.00;52238.44;2072041;28;20851;-72
2023/07/13 03:15:50;;;;;;;10.30;3.58;;;;;;;-146.25;100.00;52222.22;2071955;28;20047;-72
2023/07/13 03:16:52;;;;;;;11.25;3.33;;;;;;;-146.25;100.00;52208.03;2080316;28;20034;-72
2023/07/13 03:17:59;;;;;;;8.70;3.10;;;;;;;-146.25;100.00;52230.31;2079626;28;20808;-72
2023/07/13 03:19:05;;;;;;;10.77;3.28;;;;;;;-146.25;100.00;52228.28;2072364;28;20031;-72
2023/07/13 03:20:08;;;;;;;11.15;3.75;;;;;;;-146.25;100.00;52197.88;2080299;28;20147;-72
2023/07/13 03:21:10;;;;;;;8.85;3.22;;;;;;;-146.25;100.00;52218.16;2080024;28;21092;-72
2023/07/13 03:22:16;;;;;;;7.85;3.15;;;;;;;-146.25;100.00;52220.19;2080183;28;20042;-72
2023/07/13 03:23:21;;;;;;;7.50;3.20;;;;;;;-146.25;100.00;52214.09;2080131;28;20123;-72
2023/07/13 03:24:23;;;;;;;11.00;3.63;;;;;;;-146.25;100.00;52201.94;2080087;28;20131;-72
2023/07/13 03:25:26;;;;;;;11.30;3.17;;;;;;;-146.25;100.00;52224.25;2088147;28;20057;-72
2023/07/13 03:26:28;;;;;;;10.20;3.33;;;;;;;-146.25;100.00;52232.34;2080081;28;20244;-72
2023/07/13 03:27:31;;;;;;;11.45;3.08;;;;;;;-146.25;100.00;52230.31;2080263;28;20148;-72
2023/07/13 03:28:33;;;;;;;8.60;3.22;;;;;;;-146.25;100.00;52230.31;2079921;28;20046;-72
2023/07/13 03:29:38;;;;;;;6.13;2.95;;;;;;;-146.25;100.00;52228.28;2080266;28;20085;-72
2023/07/13 03:30:42;;;;;;;8.45;3.08;;;;;;;-146.25;100.00;52185.72;2079916;28;20045;-72
2023/07/13 03:31:43;;;;;;;10.95;3.20;;;;;;;-146.25;100.00;52199.91;2079224;28;34302;-72
2023/07/13 03:32:45;;;;;;;9.38;3.17;;;;;;;-146.25;100.00;52220.19;2071581;28;20054;-72
2023/07/13 03:33:48;;;;;;;13.57;3.45;;;;;;;-146.25;100.00;52224.25;2080066;28;20037;-72
2023/07/13 03:34:50;;;;;;;11.35;3.17;;;;;;;-146.25;100.00;52224.25;2087565;28;20177;-72
2023/07/13 03:35:52;;;;;;;8.82;3.25;;;;;;;-146.25;100.00;52218.16;2087878;28;20049;-72
2023/07/13 03:36:55;;;;;;;12.43;3.00;;;;;;;-146.25;100.00;52208.03;2080794;28;20961;-72
2023/07/13 03:37:59;;;;;;;7.05;2.50;;;;;;;-146.25;100.00;52248.56;2087585;28;31652;-72
2023/07/13 03:39:03;;;;;;;14.15;3.15;;;;;;;-146.25;100.00;52220.19;2079864;28;20077;-72
2023/07/13 03:40:14;;;;;;;11.48;3.15;;;;;;;-146.25;100.00;52220.19;2072939;28;20874;-72
2023/07/13 03:41:20;;;;;;;11.05;3.20;;;;;;;-146.25;100.00;52222.22;2071922;28;20046;-72
2023/07/13 03:42:29;;;;;;;7.43;2.65;;;;;;;-146.25;100.00;52287.09;2080993;28;20049;-71
2023/07/13 03:43:31;;;;;;;9.63;2.72;;;;;;;-146.25;100.00;52206.00;2087124;28;20231;-72
2023/07/13 03:44:32;;;;;;;9.25;3.00;;;;;;;-146.25;100.00;52222.22;2080536;28;20806;-72
2023/07/13 03:45:34;;;;;;;8.40;2.58;;;;;;;-146.25;100.00;52201.94;2080417;28;26221;-72
2023/07/13 03:46:39;;;;;;;8.25;2.70;;;;;;;-146.25;100.00;52254.66;2088023;28;20038;-72
2023/07/13 03:47:41;;;;;;;10.10;2.88;;;;;;;-146.25;100.00;52216.13;2079770;28;20046;-72
2023/07/13 03:48:45;;;;;;;10.60;3.08;;;;;;;-146.25;100.00;52240.47;2079558;28;20123;-72
2023/07/13 03:49:47;;;;;;;12.90;3.13;;;;;;;-146.25;100.00;52208.03;2071573;28;20496;-72
2023/07/13 03:50:49;;;;;;;13.60;2.95;;;;;;;-146.25;100.00;52226.25;2063282;28;30185;-72
2023/07/13 03:51:51;;;;;;;9.52;2.83;;;;;;;-146.25;100.00;52228.28;2079476;28;30675;-72
2023/07/13 03:52:55;;;;;;;13.68;2.67;;;;;;;-146.25;100.00;52234.38;2087234;28;20934;-72
2023/07/13 03:53:59;;;;;;;9.98;2.65;;;;;;;-146.25;100.00;52230.31;2079924;28;20236;-72
2023/07/13 03:55:01;;;;;;;13.05;2.58;;;;;;;-146.25;100.00;52242.50;2078929;28;36565;-72
2023/07/13 03:56:05;;;;;;;12.65;2.63;;;;;;;-146.25;100.00;52203.97;2079612;28;20038;-72
2023/07/13 03:57:08;;;;;;;7.78;2.75;;;;;;;-146.25;100.00;52254.66;2071545;28;21881;-71
2023/07/13 03:58:46;;;;;;;8.90;2.38;;;;;;;-146.25;100.00;52234.38;2063833;28;20128;-72
2023/07/13 03:59:55;;;;;;;11.55;2.47;;;;;;;-146.25;100.00;52250.59;2068655;28;20047;-72
2023/07/13 04:00:59;;;;;;;9.65;3.00;;;;;;;-146.25;100.00;52238.44;2071368;28;20055;-72
2023/07/13 04:02:04;;;;;;;10.23;2.05;;;;;;;-146.25;100.00;52264.78;2079446;28;25557;-72
2023/07/13 04:03:08;;;;;;;13.07;2.80;;;;;;;-146.25;100.00;52222.22;2079359;28;20053;-72
2023/07/13 04:04:10;;;;;;;11.25;2.95;;;;;;;-146.25;100.00;52230.31;2079215;28;34307;-73
2023/07/13 04:05:12;;;;;;;9.00;2.55;;;;;;;-146.25;100.00;52228.28;2079451;28;32110;-72
2023/07/13 04:06:29;;;;;;;12.82;2.83;;;;;;;-146.25;100.00;52236.41;2079911;28;32471;-72
2023/07/13 04:07:33;;;;;;;11.57;2.95;;;;;;;-146.25;100.00;52246.53;2080716;28;20086;-72
2023/07/13 04:08:36;;;;;;;10.95;2.78;;;;;;;-146.25;100.00;52210.03;2087931;28;20969;-72
2023/07/13 04:09:39;;;;;;;10.18;2.65;;;;;;;-146.25;100.00;52218.16;2079480;28;20176;-72
2023/07/13 04:10:43;;;;;;;10.82;2.60;;;;;;;-146.25;100.00;52216.13;2072238;28;20129;-73
2023/07/13 04:11:44;;;;;;;10.40;3.22;;;;;;;-146.25;100.00;52266.81;2071439;28;24498;-71
2023/07/13 04:12:46;;;;;;;13.15;2.95;;;;;;;-146.25;100.00;52220.19;2079206;28;33478;-72
2023/07/13 04:13:49;;;;;;;7.85;2.33;;;;;;;-146.25;100.00;52226.25;2079870;28;29500;-72
2023/07/13 04:14:51;;;;;;;12.32;2.63;;;;;;;-146.25;100.00;52214.09;2079188;28;20981;-72
2023/07/13 04:15:54;;;;;;;12.65;2.58;;;;;;;-146.25;100.00;52258.72;2079669;28;20038;-72
2023/07/13 04:16:55;;;;;;;8.15;2.53;;;;;;;-146.25;100.00;52222.22;2079906;28;34436;-72
2023/07/13 04:17:58;;;;;;;10.15;2.72;;;;;;;-146.25;100.00;52214.09;2079319;28;36856;-72
2023/07/13 04:19:00;;;;;;;16.17;2.70;;;;;;;-146.25;100.00;52222.22;2080186;28;34105;-72
2023/07/13 04:20:06;;;;;;;10.05;2.30;;;;;;;-146.25;100.00;52228.28;2080288;28;20042;-72
2023/07/13 04:21:09;;;;;;;7.63;2.38;;;;;;;-146.25;100.00;52258.72;2079777;28;35190;-72
2023/07/13 04:22:10;;;;;;;9.15;2.53;;;;;;;-146.25;100.00;52248.56;2079495;28;36543;-73
2023/07/13 04:23:13;;;;;;;9.48;2.40;;;;;;;-146.25;100.00;52230.31;2080024;28;33187;-72
2023/07/13 04:24:15;;;;;;;13.90;2.40;;;;;;;-146.25;100.00;52246.53;2079877;28;32818;-72
2023/07/13 04:25:17;;;;;;;9.75;2.30;;;;;;;-146.25;100.00;52224.25;2079891;28;30679;-73
2023/07/13 04:26:23;;;;;;;8.55;2.45;;;;;;;-146.25;100.00;52250.59;2080394;28;20098;-72
2023/07/13 04:27:25;;;;;;;6.88;2.08;;;;;;;-146.25;100.00;52260.72;2087343;28;32690;-72
2023/07/13 04:28:27;;;;;;;10.77;2.63;;;;;;;-146.25;100.00;52214.09;2086943;28;35136;-72
2023/07/13 04:29:30;;;;;;;14.93;3.25;;;;;;;-146.25;100.00;52214.09;2079580;28;34298;-72
2023/07/13 04:30:34;;;;;;;9.20;2.50;;;;;;;-146.25;100.00;52195.84;2079235;28;35985;-72
2023/07/13 04:31:36;;;;;;;11.93;2.25;;;;;;;-146.25;100.00;52242.50;2087175;28;38629;-72
2023/07/13 04:32:38;;;;;;;16.05;2.78;;;;;;;-146.25;100.00;52230.31;2086578;28;37176;-72
2023/07/13 04:33:40;;;;;;;10.35;2.00;;;;;;;-146.25;100.00;52236.41;2079465;28;37070;-72
2023/07/13 04:34:42;;;;;;;9.02;1.98;;;;;;;-146.25;100.00;52252.63;2080104;28;30566;-74
2023/07/13 04:35:46;;;;;;;8.85;1.85;;;;;;;-146.25;100.00;52234.38;2079654;28;33197;-74
2023/07/13 04:36:48;;;;;;;11.35;2.13;;;;;;;-146.25;100.00;52236.41;2079181;28;38296;-73
2023/07/13 04:37:50;;;;;;;8.90;2.40;;;;;;;-146.25;100.00;52246.53;2080758;28;21336;-71
2023/07/13 04:38:53;;;;;;;9.10;2.17;;;;;;;-146.25;100.00;52256.69;2087188;28;30297;-73
2023/07/13 04:39:55;;;;;;;10.05;2.20;;;;;;;-146.25;100.00;52254.66;2087116;28;35441;-73
2023/07/13 04:41:03;;;;;;;13.65;2.75;;;;;;;-146.25;100.00;52242.50;2079545;28;33637;-73
2023/07/13 04:42:05;;;;;;;8.80;2.20;;;;;;;-146.25;100.00;52218.16;2079002;28;38096;-73
2023/07/13 04:43:07;;;;;;;9.38;2.30;;;;;;;-146.25;100.00;52197.88;2078757;28;32415;-73
2023/07/13 04:44:09;;;;;;;7.72;2.10;;;;;;;-146.25;100.00;52266.81;2087932;28;20799;-73
2023/07/13 04:45:13;;;;;;;9.45;2.45;;;;;;;-146.25;100.00;52242.50;2078859;28;38120;-73
2023/07/13 04:46:20;;;;;;;11.68;2.15;;;;;;;-146.25;100.00;52230.31;2078343;28;30994;-74
2023/07/13 04:47:22;;;;;;;9.70;2.13;;;;;;;-146.25;100.00;52214.09;2079598;28;35143;-73
2023/07/13 04:48:24;;;;;;;11.57;2.15;;;;;;;-146.25;100.00;52274.94;2078108;28;40450;-73
2023/07/13 04:49:25;;;;;;;5.53;1.52;;;;;;;-146.25;100.00;52201.94;2079019;28;34349;-73